createdAt,value
2022-08-01T00:00:56.415Z,2.75
2022-08-01T00:03:26.112Z,2.90
2022-08-01T00:05:53.678Z,3.45
2022-08-01T00:08:24.274Z,3.05
2022-08-01T00:10:54.049Z,3.38
2022-08-01T00:13:21.623Z,2.65
2022-08-01T00:15:53.731Z,2.92
2022-08-01T00:18:22.241Z,2.92
2022-08-01T00:20:49.902Z,3.72
2022-08-01T00:23:17.415Z,3.60
2022-08-01T00:25:44.965Z,3.05
2022-08-01T00:28:14.528Z,2.78
2022-08-01T00:30:42.004Z,2.90
2022-08-01T00:33:09.486Z,3.47
2022-08-01T00:35:37.008Z,4.80
2022-08-01T00:38:04.547Z,2.92
2022-08-01T00:40:32.164Z,2.38
2022-08-01T00:42:59.675Z,2.25
2022-08-01T00:45:27.387Z,2.85
2022-08-01T00:47:55.554Z,3.25
2022-08-01T00:50:24.875Z,3.13
2022-08-01T00:52:52.934Z,2.88
2022-08-01T00:55:21.546Z,2.65
2022-08-01T00:58:04.617Z,3.33
2022-08-01T01:00:52.065Z,2.85
2022-08-01T01:03:26.368Z,3.10
2022-08-01T01:06:18.580Z,3.75
2022-08-01T01:09:10.394Z,5.85
2022-08-01T01:12:11.680Z,5.07
2022-08-01T01:14:58.007Z,7.28
2022-08-01T01:17:50.999Z,4.90
2022-08-01T01:20:22.719Z,5.25
2022-08-01T01:23:08.239Z,3.65
2022-08-01T01:25:38.635Z,3.60
2022-08-01T01:28:08.912Z,4.45
2022-08-01T01:30:40.028Z,3.70
2022-08-01T01:33:11.703Z,5.30
2022-08-01T01:35:52.915Z,4.15
2022-08-01T01:38:27.395Z,3.63
2022-08-01T01:40:58.749Z,7.82
2022-08-01T01:43:28.761Z,6.10
2022-08-01T01:46:03.726Z,4.20
2022-08-01T01:48:33.794Z,3.72
2022-08-01T01:51:02.390Z,3.90
2022-08-01T01:53:33.184Z,3.97
2022-08-01T01:56:02.841Z,3.47
2022-08-01T01:58:34.204Z,3.30
2022-08-01T02:01:03.717Z,3.97
2022-08-01T02:03:33.428Z,3.35
2022-08-01T02:06:02.735Z,3.17
2022-08-01T02:08:32.370Z,3.00
2022-08-01T02:11:21.852Z,2.80
2022-08-01T02:14:00.546Z,2.88
2022-08-01T02:16:32.789Z,3.90
2022-08-01T02:19:00.993Z,3.63
2022-08-01T02:21:42.601Z,2.75
2022-08-01T02:24:32.946Z,2.75
2022-08-01T02:27:05.198Z,4.00
2022-08-01T02:29:56.347Z,3.42
2022-08-01T02:32:58.354Z,3.53
2022-08-01T02:35:29.683Z,3.83
2022-08-01T02:37:59.690Z,4.07
2022-08-01T02:40:29.372Z,3.10
2022-08-01T02:42:59.159Z,4.45
2022-08-01T02:45:28.306Z,4.30
2022-08-01T02:48:00.595Z,4.35
2022-08-01T02:50:30.944Z,4.25
2022-08-01T02:52:59.916Z,4.10
2022-08-01T02:55:30.108Z,3.65
2022-08-01T02:58:00.966Z,4.78
2022-08-01T03:00:31.004Z,3.80
2022-08-01T03:03:00.823Z,3.80
2022-08-01T03:05:29.191Z,3.75
2022-08-01T03:08:02.790Z,4.22
2022-08-01T03:10:33.227Z,3.65
2022-08-01T03:13:02.567Z,4.68
2022-08-01T03:15:33.241Z,4.03
2022-08-01T03:18:02.168Z,3.50
2022-08-01T03:20:32.222Z,3.78
2022-08-01T03:23:02.693Z,4.47
2022-08-01T03:25:36.603Z,4.38
2022-08-01T03:28:05.902Z,3.42
2022-08-01T03:30:36.806Z,3.67
2022-08-01T03:33:04.694Z,3.92
2022-08-01T03:35:45.005Z,3.67
2022-08-01T03:38:18.228Z,3.50
2022-08-01T03:40:51.016Z,4.00
2022-08-01T03:43:58.712Z,3.60
2022-08-01T03:46:48.752Z,3.53
2022-08-01T03:49:21.250Z,4.32
2022-08-01T03:51:51.139Z,3.28
2022-08-01T03:54:22.820Z,3.85
2022-08-01T03:56:52.550Z,3.67
2022-08-01T03:59:21.605Z,3.38
2022-08-01T04:01:50.045Z,4.03
2022-08-01T04:04:17.654Z,4.75
2022-08-01T04:06:46.043Z,3.78
2022-08-01T04:09:14.078Z,4.10
2022-08-01T04:11:44.669Z,4.60
2022-08-01T04:14:12.277Z,4.10
2022-08-01T04:16:39.875Z,3.53
2022-08-01T04:19:08.687Z,3.40
2022-08-01T04:21:37.019Z,3.50
2022-08-01T04:24:14.719Z,3.67
2022-08-01T04:26:45.338Z,4.03
2022-08-01T04:29:15.286Z,2.92
2022-08-01T04:31:46.421Z,3.50
2022-08-01T04:34:17.164Z,3.63
2022-08-01T04:36:46.977Z,3.53
2022-08-01T04:39:16.578Z,3.15
2022-08-01T04:41:47.747Z,2.83
2022-08-01T04:44:15.704Z,4.10
2022-08-01T04:46:44.818Z,3.20
2022-08-01T04:49:12.916Z,3.95
2022-08-01T04:51:52.085Z,3.30
2022-08-01T04:54:19.840Z,3.03
2022-08-01T04:56:47.321Z,3.13
2022-08-01T04:59:37.864Z,3.00
2022-08-01T05:02:05.856Z,3.10
2022-08-01T05:04:33.643Z,3.10
2022-08-01T05:07:01.333Z,3.00
2022-08-01T05:09:31.205Z,2.92
2022-08-01T05:12:04.863Z,2.75
2022-08-01T05:14:33.581Z,3.25
2022-08-01T05:17:06.294Z,2.92
2022-08-01T05:19:35.174Z,3.05
2022-08-01T05:22:05.972Z,3.42
2022-08-01T05:24:35.168Z,2.70
2022-08-01T05:27:04.683Z,2.95
2022-08-01T05:29:32.514Z,2.97
2022-08-01T05:32:00.682Z,3.08
2022-08-01T05:34:28.720Z,2.65
2022-08-01T05:36:57.937Z,2.50
2022-08-01T05:39:25.693Z,2.55
2022-08-01T05:41:58.043Z,2.55
2022-08-01T05:44:28.766Z,2.40
2022-08-01T05:46:56.411Z,2.25
2022-08-01T05:49:26.504Z,2.17
2022-08-01T05:51:54.046Z,1.90
2022-08-01T05:54:21.529Z,2.17
2022-08-01T05:56:49.144Z,1.55
2022-08-01T05:59:18.968Z,2.03
2022-08-01T06:01:46.551Z,1.60
2022-08-01T06:04:14.301Z,2.10
2022-08-01T06:06:41.775Z,1.65
2022-08-01T06:09:09.363Z,2.00
2022-08-01T06:11:36.846Z,1.70
2022-08-01T06:14:04.500Z,1.95
2022-08-01T06:16:32.062Z,1.90
2022-08-01T06:18:59.570Z,1.40
2022-08-01T06:21:27.140Z,1.67
2022-08-01T06:23:54.652Z,1.90
2022-08-01T06:26:22.258Z,2.35
2022-08-01T06:28:49.773Z,2.17
2022-08-01T06:31:17.356Z,1.92
2022-08-01T06:33:44.818Z,1.98
2022-08-01T06:36:12.434Z,2.30
2022-08-01T06:38:39.905Z,1.55
2022-08-01T06:41:07.363Z,1.60
2022-08-01T06:43:35.110Z,1.55
2022-08-01T06:46:02.653Z,1.42
2022-08-01T06:48:32.322Z,1.88
2022-08-01T06:51:09.258Z,1.50
2022-08-01T06:53:38.281Z,1.60
2022-08-01T06:56:07.263Z,1.75
2022-08-01T06:58:35.735Z,1.70
2022-08-01T07:01:07.148Z,2.63
2022-08-01T07:03:52.785Z,2.00
2022-08-01T07:06:25.883Z,1.60
2022-08-01T07:08:54.231Z,2.05
2022-08-01T07:11:23.497Z,1.80
2022-08-01T07:13:51.263Z,1.77
2022-08-01T07:16:19.171Z,2.13
2022-08-01T07:18:46.747Z,1.73
2022-08-01T07:21:38.911Z,2.17
2022-08-01T07:24:02.066Z,1.80
2022-08-01T07:26:52.223Z,1.75
2022-08-01T07:29:25.855Z,2.20
2022-08-01T07:31:56.029Z,2.00
2022-08-01T07:34:24.854Z,1.70
2022-08-01T07:36:53.280Z,5.57
2022-08-01T07:39:20.891Z,2.20
2022-08-01T07:42:05.910Z,2.08
2022-08-01T07:44:36.640Z,2.15
2022-08-01T07:47:06.455Z,2.22
2022-08-01T07:49:39.439Z,2.40
2022-08-01T07:52:08.949Z,2.05
2022-08-01T07:54:36.824Z,2.45
2022-08-01T07:57:04.783Z,2.00
2022-08-01T07:59:32.384Z,1.80
2022-08-01T08:02:00.291Z,2.00
2022-08-01T08:04:29.107Z,2.00
2022-08-01T08:06:56.819Z,2.35
2022-08-01T08:09:24.351Z,2.03
2022-08-01T08:11:51.985Z,2.08
2022-08-01T08:14:20.278Z,2.60
2022-08-01T08:16:47.859Z,1.90
2022-08-01T08:19:15.504Z,2.00
2022-08-01T08:21:43.085Z,1.75
2022-08-01T08:24:20.528Z,2.10
2022-08-01T08:26:56.003Z,2.05
2022-08-01T08:29:24.352Z,2.10
2022-08-01T08:31:55.869Z,1.90
2022-08-01T08:34:25.716Z,1.70
2022-08-01T08:36:54.197Z,2.40
2022-08-01T08:39:22.128Z,1.85
2022-08-01T08:41:50.354Z,2.05
2022-08-01T08:44:19.014Z,2.13
2022-08-01T08:46:52.708Z,2.00
2022-08-01T08:49:23.919Z,2.17
2022-08-01T08:51:52.723Z,2.30
2022-08-01T08:54:30.955Z,2.42
2022-08-01T08:57:01.439Z,2.20
2022-08-01T08:59:29.621Z,2.15
2022-08-01T09:01:58.462Z,1.92
2022-08-01T09:04:27.594Z,2.08
2022-08-01T09:06:55.889Z,2.10
2022-08-01T09:09:24.490Z,1.80
2022-08-01T09:11:56.722Z,2.30
2022-08-01T09:14:31.043Z,1.83
2022-08-01T09:17:07.804Z,2.22
2022-08-01T09:19:41.897Z,2.80
2022-08-01T09:22:12.888Z,2.85
2022-08-01T09:24:41.689Z,2.42
2022-08-01T09:27:24.336Z,1.88
2022-08-01T09:30:01.556Z,1.70
2022-08-01T09:32:36.040Z,1.77
2022-08-01T09:35:36.420Z,1.65
2022-08-01T09:38:30.135Z,2.88
2022-08-01T09:41:00.180Z,1.85
2022-08-01T09:43:31.942Z,1.92
2022-08-01T09:46:05.393Z,1.70
2022-08-01T09:48:33.795Z,1.58
2022-08-01T09:51:07.345Z,1.70
2022-08-01T09:53:52.385Z,1.55
2022-08-01T09:56:22.967Z,2.15
2022-08-01T09:58:59.337Z,2.00
2022-08-01T10:01:49.758Z,2.10
2022-08-01T10:04:21.940Z,1.67
2022-08-01T10:06:55.508Z,1.92
2022-08-01T10:09:36.074Z,1.65
2022-08-01T10:12:15.437Z,2.05
2022-08-01T10:14:50.715Z,2.15
2022-08-01T10:17:20.412Z,2.10
2022-08-01T10:19:55.707Z,1.48
2022-08-01T10:22:31.095Z,1.88
2022-08-01T10:25:04.536Z,1.77
2022-08-01T10:27:38.432Z,1.70
2022-08-01T10:30:19.770Z,1.65
2022-08-01T10:32:56.217Z,1.52
2022-08-01T10:35:47.349Z,1.63
2022-08-01T10:38:14.269Z,2.13
2022-08-01T10:40:45.977Z,1.90
2022-08-01T10:43:21.186Z,1.52
2022-08-01T10:45:51.414Z,1.50
2022-08-01T10:48:31.286Z,1.60
2022-08-01T10:51:05.147Z,1.83
2022-08-01T10:53:54.815Z,1.67
2022-08-01T10:56:27.188Z,1.60
2022-08-01T10:59:06.321Z,1.48
2022-08-01T11:01:37.517Z,1.65
2022-08-01T11:04:16.407Z,2.78
2022-08-01T11:07:16.533Z,2.63
2022-08-01T11:09:51.445Z,2.58
2022-08-01T11:12:24.744Z,1.63
2022-08-01T11:15:17.187Z,1.90
2022-08-01T11:17:57.140Z,1.63
2022-08-01T11:20:34.561Z,1.65
2022-08-01T11:23:07.017Z,1.70
2022-08-01T11:26:06.606Z,2.15
2022-08-01T11:28:32.664Z,1.60
2022-08-01T11:31:11.086Z,1.40
2022-08-01T11:33:48.631Z,2.15
2022-08-01T11:36:17.105Z,1.60
2022-08-01T11:38:59.902Z,2.92
2022-08-01T11:41:38.204Z,4.07
2022-08-01T11:44:09.244Z,2.25
2022-08-01T11:47:08.698Z,1.92
2022-08-01T11:49:38.842Z,1.70
2022-08-01T11:52:11.246Z,2.50
2022-08-01T11:54:40.324Z,1.65
2022-08-01T11:57:11.209Z,1.65
2022-08-01T12:00:03.969Z,2.00
2022-08-01T12:02:40.895Z,2.15
2022-08-01T12:05:19.355Z,2.05
2022-08-01T12:07:51.378Z,1.85
2022-08-01T12:10:21.113Z,2.35
2022-08-01T12:12:54.055Z,2.10
2022-08-01T12:15:24.108Z,2.08
2022-08-01T12:17:59.730Z,1.85
2022-08-01T12:20:35.772Z,3.30
2022-08-01T12:23:08.808Z,7.40
2022-08-01T12:25:37.400Z,2.65
2022-08-01T12:28:08.537Z,1.75
2022-08-01T12:30:41.827Z,1.73
2022-08-01T12:33:11.592Z,1.83
2022-08-01T12:35:41.872Z,2.13
2022-08-01T12:38:27.977Z,1.77
2022-08-01T12:40:56.739Z,1.95
2022-08-01T12:43:29.412Z,1.88
2022-08-01T12:46:00.381Z,1.80
2022-08-01T12:48:29.278Z,2.53
2022-08-01T12:50:59.253Z,1.70
2022-08-01T12:53:40.257Z,1.70
2022-08-01T12:56:11.605Z,2.30
2022-08-01T12:58:40.101Z,1.75
2022-08-01T13:01:10.928Z,1.98
2022-08-01T13:03:39.847Z,2.00
2022-08-01T13:06:16.606Z,2.00
2022-08-01T13:08:46.352Z,2.20
2022-08-01T13:11:16.858Z,2.47
2022-08-01T13:13:51.042Z,2.20
2022-08-01T13:16:31.035Z,1.73
2022-08-01T13:19:07.138Z,2.22
2022-08-01T13:21:52.830Z,2.20
2022-08-01T13:24:28.192Z,2.03
2022-08-01T13:27:01.608Z,2.85
2022-08-01T13:29:42.404Z,2.08
2022-08-01T13:32:29.035Z,2.00
2022-08-01T13:35:09.607Z,1.85
2022-08-01T13:37:39.318Z,2.13
2022-08-01T13:40:11.983Z,2.30
2022-08-01T13:42:39.811Z,2.38
2022-08-01T13:45:14.205Z,2.00
2022-08-01T13:48:11.859Z,1.90
2022-08-01T13:50:33.571Z,1.90
2022-08-01T13:53:01.343Z,1.95
2022-08-01T13:55:34.653Z,1.80
2022-08-01T13:58:03.950Z,1.95
2022-08-01T14:00:31.831Z,1.63
2022-08-01T14:02:59.334Z,2.50
2022-08-01T14:05:26.955Z,1.83
2022-08-01T14:07:56.197Z,1.95
2022-08-01T14:10:27.164Z,2.08
2022-08-01T14:12:58.741Z,1.80
2022-08-01T14:15:38.268Z,1.73
2022-08-01T14:18:09.668Z,1.92
2022-08-01T14:20:40.918Z,1.48
2022-08-01T14:23:09.680Z,1.80
2022-08-01T14:26:02.914Z,2.17
2022-08-01T14:28:31.190Z,1.80
2022-08-01T14:30:59.111Z,2.13
2022-08-01T14:33:27.566Z,1.90
2022-08-01T14:36:06.234Z,2.00
2022-08-01T14:38:44.388Z,1.77
2022-08-01T14:41:17.635Z,2.00
2022-08-01T14:43:45.810Z,1.90
2022-08-01T14:46:14.247Z,2.25
2022-08-01T14:48:41.885Z,1.80
2022-08-01T14:51:10.071Z,2.50
2022-08-01T14:53:38.623Z,2.03
2022-08-01T14:56:08.108Z,2.25
2022-08-01T14:58:35.814Z,2.00
2022-08-01T15:01:05.544Z,2.10
2022-08-01T15:03:33.219Z,2.20
2022-08-01T15:06:01.424Z,1.90
2022-08-01T15:08:29.613Z,1.92
2022-08-01T15:10:57.768Z,1.95
2022-08-01T15:13:25.362Z,1.88
2022-08-01T15:15:52.854Z,2.05
2022-08-01T15:18:20.405Z,2.20
2022-08-01T15:20:47.989Z,2.08
2022-08-01T15:23:15.560Z,2.22
2022-08-01T15:25:43.038Z,1.65
2022-08-01T15:28:11.446Z,2.10
2022-08-01T15:30:39.795Z,1.60
2022-08-01T15:33:07.445Z,2.10
2022-08-01T15:35:35.115Z,1.70
2022-08-01T15:38:03.250Z,1.80
2022-08-01T15:40:35.764Z,2.22
2022-08-01T15:43:03.857Z,1.52
2022-08-01T15:45:49.413Z,2.10
2022-08-01T15:48:18.285Z,2.00
2022-08-01T15:50:46.001Z,2.55
2022-08-01T15:53:13.628Z,2.70
2022-08-01T15:55:41.278Z,2.40
2022-08-01T15:58:11.514Z,2.45
2022-08-01T16:00:40.037Z,2.03
2022-08-01T16:03:10.268Z,2.25
2022-08-01T16:05:43.542Z,1.85
2022-08-01T16:08:13.305Z,2.40
2022-08-01T16:10:43.566Z,2.03
2022-08-01T16:13:11.672Z,2.30
2022-08-01T16:15:39.646Z,2.58
2022-08-01T16:18:09.447Z,1.75
2022-08-01T16:20:41.522Z,1.63
2022-08-01T16:23:13.013Z,2.30
2022-08-01T16:25:40.619Z,1.80
2022-08-01T16:28:09.990Z,2.17
2022-08-01T16:30:47.958Z,2.22
2022-08-01T16:33:38.891Z,2.40
2022-08-01T16:38:45.668Z,2.00
2022-08-01T16:41:19.627Z,2.25
2022-08-01T16:43:54.193Z,2.38
2022-08-01T16:46:26.945Z,2.53
2022-08-01T16:48:54.853Z,1.98
2022-08-01T16:51:22.938Z,2.20
2022-08-01T16:53:50.460Z,2.90
2022-08-01T16:56:18.080Z,2.97
2022-08-01T16:58:45.708Z,2.60
2022-08-01T17:01:58.541Z,2.53
2022-08-01T17:04:02.048Z,2.08
2022-08-01T17:06:30.355Z,2.63
2022-08-01T17:08:58.831Z,2.85
2022-08-01T17:11:26.672Z,2.47
2022-08-01T17:13:54.223Z,3.20
2022-08-01T17:16:22.184Z,2.80
2022-08-01T17:18:49.868Z,2.45
2022-08-01T17:21:21.618Z,2.22
2022-08-01T17:23:56.208Z,2.70
2022-08-01T17:26:28.418Z,3.15
2022-08-01T17:29:01.038Z,2.58
2022-08-01T17:31:33.872Z,2.90
2022-08-01T17:34:04.820Z,2.72
2022-08-01T17:36:33.986Z,2.42
2022-08-01T17:39:09.495Z,3.75
2022-08-01T17:41:39.509Z,2.97
2022-08-01T17:44:07.796Z,2.80
2022-08-01T17:46:37.524Z,2.80
2022-08-01T17:49:15.308Z,2.92
2022-08-01T17:51:43.345Z,2.90
2022-08-01T17:54:11.697Z,3.25
2022-08-01T17:56:42.973Z,3.60
2022-08-01T17:59:13.207Z,3.42
2022-08-01T18:01:45.347Z,3.15
2022-08-01T18:04:13.140Z,2.83
2022-08-01T18:06:58.206Z,3.10
2022-08-01T18:09:26.503Z,3.10
2022-08-01T18:11:54.059Z,3.97
2022-08-01T18:14:21.864Z,3.85
2022-08-01T18:17:11.238Z,3.47
2022-08-01T18:19:40.380Z,3.03
2022-08-01T18:22:31.290Z,3.47
2022-08-01T18:24:56.308Z,4.22
2022-08-01T18:27:23.755Z,4.10
2022-08-01T18:30:11.625Z,3.60
2022-08-01T18:32:39.198Z,3.30
2022-08-01T18:35:14.237Z,3.55
2022-08-01T18:37:47.116Z,3.40
2022-08-01T18:40:23.518Z,4.28
2022-08-01T18:42:51.173Z,4.35
2022-08-01T18:45:19.028Z,3.92
2022-08-01T18:47:48.428Z,3.85
2022-08-01T18:50:16.115Z,3.67
2022-08-01T18:52:43.664Z,3.10
2022-08-01T18:55:13.650Z,3.00
2022-08-01T18:57:42.768Z,3.03
2022-08-01T19:00:11.540Z,3.97
2022-08-01T19:02:39.115Z,3.30
2022-08-01T19:05:07.020Z,4.05
2022-08-01T19:08:05.126Z,3.33
2022-08-01T19:10:24.723Z,4.20
2022-08-01T19:12:52.390Z,3.95
2022-08-01T19:15:19.933Z,3.92
2022-08-01T19:17:47.577Z,3.83
2022-08-01T19:20:15.072Z,3.55
2022-08-01T19:22:42.682Z,4.03
2022-08-01T19:25:10.383Z,4.10
2022-08-01T19:27:44.379Z,3.45
2022-08-01T19:30:12.417Z,3.80
2022-08-01T19:32:42.933Z,3.90
2022-08-01T19:35:12.910Z,3.88
2022-08-01T19:37:45.756Z,3.80
2022-08-01T19:40:27.076Z,4.50
2022-08-01T19:42:56.830Z,3.92
2022-08-01T19:45:29.414Z,3.88
2022-08-01T19:47:58.039Z,4.47
2022-08-01T19:50:27.215Z,4.03
2022-08-01T19:52:57.692Z,4.93
2022-08-01T19:55:27.095Z,4.50
2022-08-01T19:58:24.637Z,5.60
2022-08-01T20:00:44.790Z,4.15
2022-08-01T20:03:15.170Z,4.00
2022-08-01T20:05:43.651Z,4.50
2022-08-01T20:08:12.240Z,4.88
2022-08-01T20:10:40.953Z,4.35
2022-08-01T20:13:11.043Z,4.75
2022-08-01T20:15:39.264Z,5.38
2022-08-01T20:18:07.458Z,5.53
2022-08-01T20:20:36.866Z,5.03
2022-08-01T20:23:10.650Z,4.63
2022-08-01T20:25:49.659Z,5.00
2022-08-01T20:28:23.159Z,4.53
2022-08-01T20:30:54.902Z,4.30
2022-08-01T20:33:22.748Z,4.75
2022-08-01T20:35:54.069Z,3.85
2022-08-01T20:38:24.452Z,4.30
2022-08-01T20:40:59.350Z,4.43
2022-08-01T20:43:28.001Z,4.75
2022-08-01T20:45:56.655Z,3.63
2022-08-01T20:48:28.151Z,4.53
2022-08-01T20:51:14.626Z,4.07
2022-08-01T20:53:49.278Z,3.93
2022-08-01T20:56:39.507Z,4.40
2022-08-01T20:59:06.971Z,3.83
2022-08-01T21:01:40.452Z,5.07
2022-08-01T21:04:26.050Z,4.60
2022-08-01T21:07:14.016Z,4.85
2022-08-01T21:09:42.879Z,5.38
2022-08-01T21:12:20.743Z,4.53
2022-08-01T21:15:01.244Z,3.97
2022-08-01T21:17:45.423Z,5.35
2022-08-01T21:20:14.707Z,4.97
2022-08-01T21:22:48.416Z,5.05
2022-08-01T21:25:21.321Z,4.75
2022-08-01T21:27:51.817Z,4.43
2022-08-01T21:30:19.791Z,4.78
2022-08-01T21:32:49.063Z,4.97
2022-08-01T21:35:20.982Z,4.75
2022-08-01T21:37:52.698Z,4.70
2022-08-01T21:40:22.869Z,4.20
2022-08-01T21:42:53.398Z,4.20
2022-08-01T21:45:23.958Z,3.75
2022-08-01T21:47:52.788Z,3.78
2022-08-01T21:50:20.858Z,3.97
2022-08-01T21:52:50.780Z,4.68
2022-08-01T21:55:35.706Z,3.83
2022-08-01T21:58:27.853Z,4.35
2022-08-01T22:01:13.742Z,3.60
2022-08-01T22:03:49.006Z,4.45
2022-08-01T22:06:20.320Z,3.88
2022-08-01T22:08:53.174Z,4.70
2022-08-01T22:11:31.023Z,4.57
2022-08-01T22:14:01.985Z,4.05
2022-08-01T22:16:32.281Z,4.07
2022-08-01T22:19:03.399Z,4.10
2022-08-01T22:21:31.589Z,3.67
2022-08-01T22:23:59.830Z,4.30
2022-08-01T22:26:29.929Z,3.80
2022-08-01T22:28:58.744Z,3.88
2022-08-01T22:31:26.331Z,3.75
2022-08-01T22:33:54.644Z,3.60
2022-08-01T22:36:22.563Z,4.05
2022-08-01T22:38:50.277Z,4.28
2022-08-01T22:41:21.806Z,3.85
2022-08-01T22:44:17.892Z,3.92
2022-08-01T22:47:07.128Z,3.95
2022-08-01T22:49:40.736Z,4.75
2022-08-01T22:52:17.940Z,4.03
2022-08-01T22:55:06.591Z,4.63
2022-08-01T22:57:58.357Z,4.03
2022-08-01T23:00:32.234Z,3.78
2022-08-01T23:03:07.687Z,3.78
2022-08-01T23:05:41.179Z,3.90
2022-08-01T23:08:16.156Z,4.15
2022-08-01T23:10:44.225Z,3.97
2022-08-01T23:13:14.585Z,4.75
2022-08-01T23:15:44.321Z,4.20
2022-08-01T23:20:50.536Z,4.05
2022-08-01T23:23:19.208Z,4.78
2022-08-01T23:26:00.365Z,4.35
2022-08-01T23:28:29.244Z,4.30
2022-08-01T23:30:59.061Z,4.50
2022-08-01T23:33:26.567Z,4.40
2022-08-01T23:35:54.617Z,4.05
2022-08-01T23:38:22.172Z,3.92
2022-08-01T23:40:51.039Z,4.63
2022-08-01T23:43:21.357Z,4.50
2022-08-01T23:46:03.475Z,4.15
2022-08-01T23:48:34.560Z,4.97
2022-08-01T23:51:02.879Z,4.28
2022-08-01T23:53:31.383Z,4.22
2022-08-01T23:56:01.718Z,4.05
2022-08-01T23:58:30.871Z,4.32
